South Cle Elum, Washington
Current Conditions -  °F | °C
As of 8:53 PM on Monday 20 Oct 2014 (Local Time) from KELN Reporting Station
Overcast Overcast  
Wind Chill: 53°   Ceiling: 6000
Heat Index: 53°   Visibility: 10mi
Dew Point: 48°   Wind: 5mph
Humidity: 83%   Direction: 200°SSW
Pressure: 29.79"   Gusts: NA
Location:  47.19°N, 120.95°W
Report Text: KELN 210353Z AUTO 20004KT 10SM FEW041 SCT049 OVC060 12/09 A2979 RMK AO2 SLP089 T01170089
Loading
Personal Weather Stations






























Interactive Weather Map
Tropical Storm Tracking
New forecast layout! Learn more

10-Day Weather Forecast

Advertisements
Track Severe Weather on mobile